createdAt,value
2023-02-16T00:01:50.709Z,1.23
2023-02-16T00:04:22.993Z,1.15
2023-02-16T00:06:52.574Z,1.17
2023-02-16T00:09:21.860Z,1.09
2023-02-16T00:12:08.764Z,1.01
2023-02-16T00:14:38.931Z,0.97
2023-02-16T00:17:08.114Z,0.84
2023-02-16T00:19:40.311Z,0.81
2023-02-16T00:22:11.424Z,0.76
2023-02-16T00:24:39.952Z,0.73
2023-02-16T00:27:14.599Z,0.67
2023-02-16T00:29:45.670Z,0.66
2023-02-16T00:32:15.028Z,0.66
2023-02-16T00:34:47.240Z,0.66
2023-02-16T00:37:16.338Z,0.69
2023-02-16T00:39:45.480Z,0.64
2023-02-16T00:42:19.795Z,0.72
2023-02-16T00:44:50.499Z,0.68
2023-02-16T00:47:22.998Z,0.59
2023-02-16T00:49:55.479Z,0.59
2023-02-16T00:52:34.047Z,0.58
2023-02-16T00:55:04.277Z,0.51
2023-02-16T00:57:35.512Z,0.46
2023-02-16T01:00:08.158Z,0.42
2023-02-16T01:02:36.692Z,0.37
2023-02-16T01:05:07.039Z,0.31
2023-02-16T01:07:53.486Z,0.32
2023-02-16T01:10:39.905Z,0.29
2023-02-16T01:13:08.582Z,0.26
2023-02-16T01:15:37.889Z,0.28
2023-02-16T01:18:06.819Z,0.36
2023-02-16T01:20:37.516Z,0.34
2023-02-16T01:23:05.921Z,0.38
2023-02-16T01:25:34.476Z,0.31
2023-02-16T01:28:02.823Z,0.34
2023-02-16T01:30:31.305Z,0.30
2023-02-16T01:32:59.742Z,0.32
2023-02-16T01:35:32.752Z,0.29
2023-02-16T01:38:02.730Z,0.15
2023-02-16T01:40:39.569Z,-0.09
2023-02-16T01:43:19.822Z,0.04
2023-02-16T01:45:56.458Z,-0.00
2023-02-16T01:48:29.333Z,-0.08
2023-02-16T01:51:04.730Z,-0.10
2023-02-16T01:53:41.404Z,-0.06
2023-02-16T01:56:19.590Z,0.00
2023-02-16T01:58:51.726Z,0.01
2023-02-16T02:01:53.820Z,-0.03
2023-02-16T02:04:45.488Z,-0.04
2023-02-16T02:07:23.374Z,-0.49
2023-02-16T02:10:02.529Z,-0.13
2023-02-16T02:12:38.843Z,-0.14
2023-02-16T02:15:09.337Z,-0.20
2023-02-16T02:17:38.443Z,-0.22
2023-02-16T02:20:16.495Z,-0.23
2023-02-16T02:23:33.975Z,-0.34
2023-02-16T02:26:44.746Z,-0.39
2023-02-16T02:29:27.631Z,-0.40
2023-02-16T02:32:07.694Z,-0.45
2023-02-16T02:34:53.404Z,-0.42
2023-02-16T02:37:29.134Z,-0.38
2023-02-16T02:40:09.886Z,-0.30
2023-02-16T02:42:45.294Z,-0.27
2023-02-16T02:45:18.224Z,-0.29
2023-02-16T02:47:49.584Z,-0.30
2023-02-16T02:50:38.790Z,-0.29
2023-02-16T02:53:13.528Z,-0.24
2023-02-16T02:56:03.841Z,-0.20
2023-02-16T02:59:06.291Z,-0.22
2023-02-16T03:01:39.993Z,-0.24
2023-02-16T03:04:10.324Z,-0.23
2023-02-16T03:06:41.576Z,-0.32
2023-02-16T03:09:14.322Z,-0.32
2023-02-16T03:12:00.913Z,-0.32
2023-02-16T03:14:34.459Z,-0.31
2023-02-16T03:17:25.422Z,-0.44
2023-02-16T03:20:11.385Z,-0.43
2023-02-16T03:22:58.478Z,-0.48
2023-02-16T03:25:49.026Z,-0.97
2023-02-16T03:28:38.299Z,-0.50
2023-02-16T03:31:09.398Z,-0.49
2023-02-16T03:33:40.194Z,-0.51
2023-02-16T03:36:09.719Z,-0.48
2023-02-16T03:38:39.559Z,-0.45
2023-02-16T03:41:08.985Z,-0.45
2023-02-16T03:43:37.391Z,-0.50
2023-02-16T03:46:06.150Z,-0.54
2023-02-16T03:48:34.616Z,-0.61
2023-02-16T03:51:04.810Z,-0.73
2023-02-16T03:53:33.482Z,-0.60
2023-02-16T03:56:01.883Z,-0.68
2023-02-16T03:58:30.387Z,-0.72
2023-02-16T04:00:59.492Z,-0.76
2023-02-16T04:03:28.010Z,-0.77
2023-02-16T04:05:57.014Z,-0.77
2023-02-16T04:08:26.991Z,-0.64
2023-02-16T04:10:57.558Z,-0.63
2023-02-16T04:13:25.190Z,-0.66
2023-02-16T04:15:53.824Z,-0.71
2023-02-16T04:18:22.417Z,-0.68
2023-02-16T04:20:50.890Z,-0.66
2023-02-16T04:23:19.168Z,-0.71
2023-02-16T04:25:49.028Z,-0.74
2023-02-16T04:28:17.407Z,-0.77
2023-02-16T04:30:46.907Z,-0.77
2023-02-16T04:33:15.478Z,-0.76
2023-02-16T04:35:44.830Z,-0.81
2023-02-16T04:38:13.322Z,-0.87
2023-02-16T04:40:41.945Z,-0.94
2023-02-16T04:43:11.787Z,-0.97
2023-02-16T04:45:40.154Z,-1.02
2023-02-16T04:48:08.604Z,-1.05
2023-02-16T04:50:37.022Z,-1.05
2023-02-16T04:53:05.381Z,-1.04
2023-02-16T04:55:33.871Z,-1.06
2023-02-16T04:58:03.382Z,-1.19
2023-02-16T05:00:35.113Z,-0.95
2023-02-16T05:03:05.000Z,-1.00
2023-02-16T05:05:35.269Z,-1.01
2023-02-16T05:08:04.566Z,-1.01
2023-02-16T05:10:32.927Z,-1.10
2023-02-16T05:13:18.552Z,-1.09
2023-02-16T05:15:48.623Z,-1.11
2023-02-16T05:18:17.015Z,-1.16
2023-02-16T05:21:03.238Z,-1.25
2023-02-16T05:23:31.787Z,-1.32
2023-02-16T05:26:00.451Z,-1.35
2023-02-16T05:28:28.831Z,-1.28
2023-02-16T05:30:58.672Z,-1.19
2023-02-16T05:33:27.073Z,-1.19
2023-02-16T05:35:55.364Z,-1.22
2023-02-16T05:38:23.756Z,-1.24
2023-02-16T05:40:53.028Z,-1.26
2023-02-16T05:43:21.459Z,-1.32
2023-02-16T05:45:49.929Z,-1.32
2023-02-16T05:48:19.906Z,-1.32
2023-02-16T05:50:48.268Z,-1.32
2023-02-16T05:53:16.743Z,-1.32
2023-02-16T05:55:45.819Z,-1.34
2023-02-16T05:58:14.132Z,-1.33
2023-02-16T06:00:42.469Z,-1.36
2023-02-16T06:03:10.874Z,-1.49
2023-02-16T06:05:40.667Z,-1.47
2023-02-16T06:08:09.498Z,-1.53
2023-02-16T06:10:37.803Z,-1.53
2023-02-16T06:13:06.262Z,-1.48
2023-02-16T06:15:34.711Z,-1.57
2023-02-16T06:18:11.473Z,-1.57
2023-02-16T06:20:42.538Z,-1.63
2023-02-16T06:23:13.490Z,-1.65
2023-02-16T06:25:43.122Z,-1.71
2023-02-16T06:28:11.876Z,-1.75
2023-02-16T06:30:40.234Z,-1.79
2023-02-16T06:33:08.586Z,-1.81
2023-02-16T06:35:37.004Z,-1.73
2023-02-16T06:38:06.795Z,-1.70
2023-02-16T06:40:35.402Z,-1.67
2023-02-16T06:43:03.741Z,-1.71
2023-02-16T06:45:32.198Z,-1.77
2023-02-16T06:48:00.547Z,-1.80
2023-02-16T06:50:29.057Z,-1.84
2023-02-16T06:52:57.755Z,-1.83
2023-02-16T06:55:27.459Z,-1.77
2023-02-16T06:57:55.873Z,-1.80
2023-02-16T07:00:24.380Z,-1.85
2023-02-16T07:02:52.779Z,-1.77
2023-02-16T07:05:21.222Z,-1.79
2023-02-16T07:07:49.563Z,-1.77
2023-02-16T07:10:18.109Z,-1.72
2023-02-16T07:12:48.118Z,-1.62
2023-02-16T07:15:16.537Z,-1.58
2023-02-16T07:17:44.851Z,-1.59
2023-02-16T07:20:14.050Z,-1.64
2023-02-16T07:22:42.376Z,-1.63
2023-02-16T07:25:10.681Z,-1.51
2023-02-16T07:27:39.186Z,-1.45
2023-02-16T07:30:11.177Z,-1.43
2023-02-16T07:32:39.662Z,-1.38
2023-02-16T07:35:08.355Z,-1.37
2023-02-16T07:37:36.756Z,-1.36
2023-02-16T07:40:05.651Z,-1.35
2023-02-16T07:42:35.467Z,-1.27
2023-02-16T07:45:05.066Z,-1.08
2023-02-16T07:47:35.185Z,-0.74
2023-02-16T07:50:03.522Z,-0.34
2023-02-16T07:52:31.868Z,0.12
2023-02-16T07:55:00.416Z,1.06
2023-02-16T07:57:30.698Z,1.10
2023-02-16T07:59:59.103Z,1.97
2023-02-16T08:02:28.201Z,2.45
2023-02-16T08:04:58.250Z,2.92
2023-02-16T08:07:26.852Z,3.38
2023-02-16T08:09:55.393Z,3.65
2023-02-16T08:12:23.768Z,4.04
2023-02-16T08:14:52.179Z,4.51
2023-02-16T08:17:20.590Z,4.89
2023-02-16T08:19:49.276Z,5.15
2023-02-16T08:22:19.658Z,5.57
2023-02-16T08:24:47.985Z,5.92
2023-02-16T08:27:16.491Z,6.23
2023-02-16T08:29:44.980Z,6.41
2023-02-16T08:32:14.836Z,6.55
2023-02-16T08:34:43.594Z,6.54
2023-02-16T08:37:13.905Z,6.57
2023-02-16T08:39:43.991Z,6.54
2023-02-16T08:42:14.430Z,6.52
2023-02-16T08:44:43.506Z,6.50
2023-02-16T08:47:12.379Z,6.44
2023-02-16T08:49:40.753Z,6.30
2023-02-16T08:52:10.362Z,6.25
2023-02-16T08:54:38.877Z,6.22
2023-02-16T08:57:08.738Z,6.14
2023-02-16T08:59:37.324Z,6.32
2023-02-16T09:02:05.723Z,6.44
2023-02-16T09:04:34.436Z,6.50
2023-02-16T09:07:02.867Z,6.50
2023-02-16T09:09:34.893Z,6.55
2023-02-16T09:12:03.354Z,6.67
2023-02-16T09:14:33.390Z,6.76
2023-02-16T09:17:02.120Z,6.90
2023-02-16T09:19:30.619Z,7.05
2023-02-16T09:21:59.016Z,7.12
2023-02-16T09:24:27.405Z,7.23
2023-02-16T09:26:55.863Z,7.31
2023-02-16T09:29:24.241Z,7.42
2023-02-16T09:31:55.907Z,7.48
2023-02-16T09:34:26.801Z,7.55
2023-02-16T09:36:56.021Z,7.60
2023-02-16T09:39:24.415Z,7.70
2023-02-16T09:42:05.201Z,7.45
2023-02-16T09:44:46.338Z,7.82
2023-02-16T09:47:24.331Z,7.88
2023-02-16T09:49:56.417Z,7.95
2023-02-16T09:52:31.701Z,7.84
2023-02-16T09:55:01.764Z,8.10
2023-02-16T09:57:44.155Z,8.21
2023-02-16T10:00:24.408Z,8.34
2023-02-16T10:03:01.171Z,8.42
2023-02-16T10:05:33.992Z,8.55
2023-02-16T10:08:07.113Z,8.47
2023-02-16T10:10:44.097Z,8.46
2023-02-16T10:13:21.983Z,8.66
2023-02-16T10:15:53.832Z,8.64
2023-02-16T10:18:30.647Z,8.63
2023-02-16T10:21:04.090Z,8.65
2023-02-16T10:23:45.713Z,8.56
2023-02-16T10:26:27.213Z,8.76
2023-02-16T10:28:58.975Z,8.82
2023-02-16T10:31:35.499Z,8.87
2023-02-16T10:34:22.617Z,8.92
2023-02-16T10:37:17.719Z,8.97
2023-02-16T10:39:53.417Z,9.01
2023-02-16T10:42:31.227Z,9.13
2023-02-16T10:45:03.763Z,9.25
2023-02-16T10:47:36.853Z,9.39
2023-02-16T10:50:12.814Z,9.46
2023-02-16T10:52:43.921Z,9.52
2023-02-16T10:55:13.546Z,9.60
2023-02-16T10:57:41.918Z,9.66
2023-02-16T11:00:16.020Z,9.74
2023-02-16T11:02:47.375Z,9.82
2023-02-16T11:05:38.826Z,9.93
2023-02-16T11:08:11.456Z,10.00
2023-02-16T11:10:48.972Z,10.12
2023-02-16T11:13:33.995Z,10.24
2023-02-16T11:16:07.383Z,10.30
2023-02-16T11:18:39.362Z,10.41
2023-02-16T11:21:12.427Z,10.45
2023-02-16T11:23:42.340Z,10.51
2023-02-16T11:26:25.288Z,10.59
2023-02-16T11:28:54.575Z,10.63
2023-02-16T11:31:29.767Z,10.73
2023-02-16T11:34:04.319Z,10.84
2023-02-16T11:36:40.484Z,10.83
2023-02-16T11:39:20.285Z,11.19
2023-02-16T11:41:52.321Z,11.34
2023-02-16T11:44:28.792Z,11.34
2023-02-16T11:46:59.361Z,11.67
2023-02-16T11:49:34.796Z,11.82
2023-02-16T11:52:21.168Z,11.93
2023-02-16T11:54:51.105Z,11.99
2023-02-16T11:57:27.094Z,12.19
2023-02-16T11:59:56.945Z,12.35
2023-02-16T12:02:56.343Z,12.52
2023-02-16T12:05:37.966Z,12.58
2023-02-16T12:08:27.094Z,12.68
2023-02-16T12:11:16.656Z,12.71
2023-02-16T12:13:57.330Z,12.83
2023-02-16T12:16:31.564Z,12.91
2023-02-16T12:19:12.774Z,13.02
2023-02-16T12:21:46.060Z,13.07
2023-02-16T12:24:29.035Z,13.14
2023-02-16T12:27:01.953Z,13.16
2023-02-16T12:29:45.212Z,13.26
2023-02-16T12:32:31.444Z,13.34
2023-02-16T12:35:14.205Z,13.37
2023-02-16T12:37:50.241Z,13.39
2023-02-16T12:40:28.986Z,13.52
2023-02-16T12:43:23.953Z,13.53
2023-02-16T12:45:57.254Z,13.57
2023-02-16T12:48:40.375Z,13.66
2023-02-16T12:51:15.399Z,13.69
2023-02-16T12:53:49.232Z,13.74
2023-02-16T12:56:26.102Z,13.81
2023-02-16T12:59:04.769Z,13.88
2023-02-16T13:01:36.976Z,13.94
2023-02-16T13:04:15.543Z,14.01
2023-02-16T13:06:50.213Z,14.10
2023-02-16T13:09:34.125Z,14.17
2023-02-16T13:12:12.824Z,14.22
2023-02-16T13:14:45.296Z,14.22
2023-02-16T13:17:19.278Z,14.24
2023-02-16T13:19:48.575Z,14.29
2023-02-16T13:23:04.664Z,14.34
2023-02-16T13:25:51.075Z,14.32
2023-02-16T13:28:40.897Z,14.30
2023-02-16T13:31:30.595Z,14.24
2023-02-16T13:34:14.892Z,14.20
2023-02-16T13:37:18.108Z,14.14
2023-02-16T13:40:06.291Z,14.08
2023-02-16T13:43:09.894Z,14.02
2023-02-16T13:45:42.685Z,14.01
2023-02-16T13:48:17.633Z,13.98
2023-02-16T13:50:47.753Z,13.92
2023-02-16T13:53:22.316Z,13.94
2023-02-16T13:55:52.915Z,13.92
2023-02-16T13:58:30.869Z,13.94
2023-02-16T14:01:20.792Z,13.88
2023-02-16T14:03:50.659Z,13.89
2023-02-16T14:06:42.900Z,13.91
2023-02-16T14:09:50.291Z,13.93
2023-02-16T14:12:21.739Z,13.92
2023-02-16T14:15:03.553Z,13.96
2023-02-16T14:17:34.623Z,13.96
2023-02-16T14:20:09.224Z,14.05
2023-02-16T14:22:48.283Z,14.09
2023-02-16T14:25:36.849Z,14.10
2023-02-16T14:28:07.511Z,14.05
2023-02-16T14:30:38.060Z,14.05
2023-02-16T14:33:20.632Z,14.06
2023-02-16T14:36:09.183Z,14.01
2023-02-16T14:38:39.082Z,13.98
2023-02-16T14:41:17.062Z,13.98
2023-02-16T14:43:47.279Z,13.95
2023-02-16T14:46:39.018Z,13.92
2023-02-16T14:49:47.219Z,13.88
2023-02-16T14:52:43.718Z,13.83
2023-02-16T14:55:42.644Z,13.75
2023-02-16T14:58:27.825Z,13.64
2023-02-16T15:01:04.237Z,13.61
2023-02-16T15:03:42.945Z,13.59
2023-02-16T15:06:21.123Z,13.56
2023-02-16T15:08:57.520Z,13.55
2023-02-16T15:11:31.642Z,13.54
2023-02-16T15:14:08.074Z,13.51
2023-02-16T15:16:41.729Z,13.43
2023-02-16T15:19:16.927Z,13.37
2023-02-16T15:21:45.713Z,13.34
2023-02-16T15:24:25.308Z,13.28
2023-02-16T15:26:57.123Z,13.06
2023-02-16T15:29:27.360Z,13.18
2023-02-16T15:31:57.193Z,13.18
2023-02-16T15:34:33.479Z,12.98
2023-02-16T15:37:03.652Z,12.65
2023-02-16T15:39:48.428Z,13.05
2023-02-16T15:42:23.812Z,13.00
2023-02-16T15:44:53.441Z,12.95
2023-02-16T15:47:24.422Z,12.89
2023-02-16T15:49:54.153Z,12.84
2023-02-16T15:52:30.435Z,12.81
2023-02-16T15:55:02.250Z,12.76
2023-02-16T15:57:33.127Z,12.70
2023-02-16T16:00:04.243Z,12.68
2023-02-16T16:02:47.665Z,12.66
2023-02-16T16:05:25.432Z,12.62
2023-02-16T16:07:56.069Z,12.58
2023-02-16T16:10:29.757Z,12.53
2023-02-16T16:13:00.725Z,12.44
2023-02-16T16:15:32.677Z,12.14
2023-02-16T16:18:02.768Z,12.36
2023-02-16T16:20:34.002Z,12.26
2023-02-16T16:23:04.823Z,12.26
2023-02-16T16:25:43.412Z,12.16
2023-02-16T16:28:15.137Z,12.09
2023-02-16T16:30:45.376Z,12.02
2023-02-16T16:33:15.940Z,11.95
2023-02-16T16:35:46.466Z,11.88
2023-02-16T16:38:26.149Z,11.57
2023-02-16T16:40:58.913Z,11.74
2023-02-16T16:43:30.804Z,11.66
2023-02-16T16:46:14.748Z,11.61
2023-02-16T16:48:46.830Z,11.56
2023-02-16T16:51:18.429Z,11.51
2023-02-16T16:53:57.432Z,11.45
2023-02-16T16:56:27.714Z,11.37
2023-02-16T16:58:58.672Z,11.33
2023-02-16T17:01:28.885Z,11.26
2023-02-16T17:03:57.463Z,11.18
2023-02-16T17:06:26.520Z,11.10
2023-02-16T17:08:55.824Z,11.02
2023-02-16T17:11:28.463Z,10.95
2023-02-16T17:13:58.765Z,10.86
2023-02-16T17:16:29.863Z,10.79
2023-02-16T17:18:58.296Z,10.69
2023-02-16T17:21:26.620Z,10.59
2023-02-16T17:23:55.013Z,10.51
2023-02-16T17:26:23.547Z,10.43
2023-02-16T17:28:53.715Z,10.35
2023-02-16T17:31:22.438Z,10.29
2023-02-16T17:33:51.027Z,10.18
2023-02-16T17:36:20.829Z,10.09
2023-02-16T17:38:50.004Z,9.98
2023-02-16T17:41:21.513Z,9.87
2023-02-16T17:43:50.140Z,9.74
2023-02-16T17:46:21.623Z,9.73
2023-02-16T17:48:52.256Z,9.61
2023-02-16T17:51:23.302Z,9.37
2023-02-16T17:53:51.868Z,9.18
2023-02-16T17:56:22.916Z,8.94
2023-02-16T17:58:53.034Z,8.76
2023-02-16T18:01:23.292Z,8.60
2023-02-16T18:03:53.206Z,8.52
2023-02-16T18:06:25.507Z,8.42
2023-02-16T18:08:56.471Z,8.28
2023-02-16T18:11:24.858Z,8.15
2023-02-16T18:13:53.473Z,8.02
2023-02-16T18:16:27.842Z,8.03
2023-02-16T18:18:57.458Z,8.02
2023-02-16T18:21:25.950Z,7.96
2023-02-16T18:23:54.292Z,7.89
2023-02-16T18:26:23.921Z,7.73
2023-02-16T18:28:52.280Z,7.57
2023-02-16T18:31:22.173Z,7.41
2023-02-16T18:33:50.732Z,7.17
2023-02-16T18:36:19.233Z,6.99
2023-02-16T18:38:47.687Z,6.81
2023-02-16T18:41:16.155Z,6.69
2023-02-16T18:43:44.587Z,6.51
2023-02-16T18:46:13.062Z,6.46
2023-02-16T18:48:42.905Z,6.43
2023-02-16T18:51:12.509Z,6.39
2023-02-16T18:53:41.027Z,6.28
2023-02-16T18:56:12.032Z,6.21
2023-02-16T18:58:40.760Z,6.10
2023-02-16T19:01:27.073Z,5.79
2023-02-16T19:03:56.964Z,5.83
2023-02-16T19:06:25.574Z,5.63
2023-02-16T19:08:54.007Z,5.63
2023-02-16T19:11:23.376Z,5.69
2023-02-16T19:13:51.814Z,5.78
2023-02-16T19:16:20.206Z,5.80
2023-02-16T19:18:48.664Z,5.75
2023-02-16T19:21:18.445Z,5.55
2023-02-16T19:23:46.930Z,5.48
2023-02-16T19:26:17.292Z,5.33
2023-02-16T19:28:46.062Z,5.16
2023-02-16T19:31:20.103Z,5.08
2023-02-16T19:33:49.025Z,4.89
2023-02-16T19:36:20.691Z,4.77
2023-02-16T19:38:49.660Z,4.96
2023-02-16T19:41:20.088Z,4.94
2023-02-16T19:43:49.872Z,4.85
2023-02-16T19:46:18.337Z,4.78
2023-02-16T19:48:47.206Z,4.79
2023-02-16T19:51:16.154Z,4.09
2023-02-16T19:53:46.458Z,4.86
2023-02-16T19:56:19.069Z,4.74
2023-02-16T19:58:47.834Z,4.63
2023-02-16T20:01:17.755Z,4.37
2023-02-16T20:03:46.814Z,4.35
2023-02-16T20:06:17.959Z,4.26
2023-02-16T20:08:50.276Z,4.20
2023-02-16T20:11:20.445Z,4.18
2023-02-16T20:13:49.559Z,4.22
2023-02-16T20:16:19.334Z,4.16
2023-02-16T20:18:48.245Z,3.98
2023-02-16T20:21:18.768Z,3.85
2023-02-16T20:23:49.705Z,3.75
2023-02-16T20:26:20.666Z,3.65
2023-02-16T20:28:49.986Z,3.71
2023-02-16T20:31:20.600Z,3.72
2023-02-16T20:33:49.903Z,3.85
2023-02-16T20:36:18.461Z,3.84
2023-02-16T20:38:49.241Z,3.79
2023-02-16T20:41:18.070Z,3.85
2023-02-16T20:43:46.541Z,3.67
2023-02-16T20:46:16.448Z,3.57
2023-02-16T20:48:46.582Z,3.46
2023-02-16T20:51:15.588Z,3.27
2023-02-16T20:53:44.603Z,3.30
2023-02-16T20:56:16.304Z,3.23
2023-02-16T20:58:45.871Z,3.23
2023-02-16T21:01:15.270Z,3.31
2023-02-16T21:03:44.216Z,3.37
2023-02-16T21:06:12.685Z,3.42
2023-02-16T21:08:41.142Z,3.37
2023-02-16T21:11:10.572Z,3.02
2023-02-16T21:13:41.018Z,3.05
2023-02-16T21:16:10.543Z,2.99
2023-02-16T21:18:40.574Z,2.94
2023-02-16T21:21:09.774Z,2.79
2023-02-16T21:23:38.173Z,2.94
2023-02-16T21:26:07.200Z,2.94
2023-02-16T21:28:36.021Z,3.06
2023-02-16T21:31:08.118Z,2.95
2023-02-16T21:33:37.299Z,2.76
2023-02-16T21:36:07.749Z,2.77
2023-02-16T21:38:37.540Z,2.71
2023-02-16T21:41:30.139Z,2.59
2023-02-16T21:44:02.257Z,2.49
2023-02-16T21:46:34.661Z,2.46
2023-02-16T21:49:02.548Z,2.44
2023-02-16T21:51:32.318Z,2.37
2023-02-16T21:54:01.842Z,2.41
2023-02-16T21:56:36.235Z,2.42
2023-02-16T21:59:05.752Z,2.36
2023-02-16T22:01:37.398Z,2.35
2023-02-16T22:04:07.395Z,2.35
2023-02-16T22:06:37.480Z,2.43
2023-02-16T22:09:08.305Z,2.46
2023-02-16T22:11:36.901Z,2.37
2023-02-16T22:14:05.260Z,2.36
2023-02-16T22:16:38.074Z,2.34
2023-02-16T22:19:09.200Z,2.35
2023-02-16T22:21:38.656Z,2.32
2023-02-16T22:24:07.853Z,2.27
2023-02-16T22:26:37.135Z,2.19
2023-02-16T22:29:06.839Z,1.97
2023-02-16T22:31:37.092Z,1.93
2023-02-16T22:34:07.716Z,2.10
2023-02-16T22:36:38.180Z,2.11
2023-02-16T22:39:06.701Z,2.09
2023-02-16T22:41:35.992Z,1.87
2023-02-16T22:44:04.619Z,1.95
2023-02-16T22:46:33.444Z,2.09
2023-02-16T22:49:03.309Z,2.22
2023-02-16T22:51:32.749Z,2.29
2023-02-16T22:54:03.001Z,2.02
2023-02-16T22:56:33.231Z,2.16
2023-02-16T22:59:02.294Z,2.29
2023-02-16T23:01:31.829Z,2.15
2023-02-16T23:04:02.875Z,1.57
2023-02-16T23:06:33.018Z,2.31
2023-02-16T23:09:03.209Z,2.27
2023-02-16T23:11:32.011Z,2.30
2023-02-16T23:14:00.374Z,2.28
2023-02-16T23:16:29.838Z,2.20
2023-02-16T23:18:59.797Z,2.18
2023-02-16T23:21:31.713Z,1.97
2023-02-16T23:24:01.480Z,2.14
2023-02-16T23:26:32.501Z,2.17
2023-02-16T23:29:02.636Z,2.13
2023-02-16T23:31:33.827Z,2.03
2023-02-16T23:34:02.940Z,1.95
2023-02-16T23:36:33.580Z,1.89
2023-02-16T23:39:02.047Z,1.87
2023-02-16T23:41:31.012Z,1.81
2023-02-16T23:44:01.151Z,1.71
2023-02-16T23:46:30.101Z,1.66
2023-02-16T23:48:58.568Z,1.59
2023-02-16T23:51:28.286Z,1.57
2023-02-16T23:53:58.148Z,1.49
2023-02-16T23:56:28.279Z,1.44
2023-02-16T23:58:59.016Z,1.47
